createdAt,value
2023-05-08T00:00:42.451Z,343.00
2023-05-08T00:01:42.461Z,345.00
2023-05-08T00:02:42.519Z,345.00
2023-05-08T00:03:42.643Z,346.00
2023-05-08T00:04:42.482Z,345.00
2023-05-08T00:05:42.450Z,343.00
2023-05-08T00:06:42.449Z,341.00
2023-05-08T00:07:42.460Z,340.00
2023-05-08T00:08:42.467Z,341.00
2023-05-08T00:09:42.471Z,342.00
2023-05-08T00:10:42.458Z,343.00
2023-05-08T00:11:42.464Z,344.00
2023-05-08T00:12:42.464Z,345.00
2023-05-08T00:13:42.445Z,343.00
2023-05-08T00:14:42.445Z,341.00
2023-05-08T00:15:42.446Z,339.00
2023-05-08T00:16:42.534Z,339.00
2023-05-08T00:17:42.498Z,338.00
2023-05-08T00:18:42.468Z,338.00
2023-05-08T00:19:42.486Z,338.00
2023-05-08T00:20:42.451Z,339.00
2023-05-08T00:21:42.475Z,338.00
2023-05-08T00:22:42.457Z,338.00
2023-05-08T00:23:42.476Z,340.00
2023-05-08T00:24:42.464Z,340.00
2023-05-08T00:25:42.465Z,338.00
2023-05-08T00:26:42.492Z,339.00
2023-05-08T00:27:42.474Z,338.00
2023-05-08T00:28:42.474Z,339.00
2023-05-08T00:29:42.500Z,338.00
2023-05-08T00:30:42.535Z,339.00
2023-05-08T00:31:42.548Z,339.00
2023-05-08T00:32:42.518Z,338.00
2023-05-08T00:33:42.493Z,339.00
2023-05-08T00:34:42.502Z,340.00
2023-05-08T00:35:42.495Z,340.00
2023-05-08T00:36:42.501Z,341.00
2023-05-08T00:37:42.517Z,341.00
2023-05-08T00:38:42.522Z,339.00
2023-05-08T00:39:42.523Z,338.00
2023-05-08T00:40:42.521Z,338.00
2023-05-08T00:41:42.538Z,337.00
2023-05-08T00:42:42.606Z,336.00
2023-05-08T00:43:42.559Z,339.00
2023-05-08T00:44:42.559Z,342.00
2023-05-08T00:45:42.554Z,341.00
2023-05-08T00:46:42.680Z,340.00
2023-05-08T00:47:42.624Z,340.00
2023-05-08T00:48:42.588Z,338.00
2023-05-08T00:49:42.626Z,336.00
2023-05-08T00:50:42.593Z,336.00
2023-05-08T00:51:42.569Z,339.00
2023-05-08T00:52:42.577Z,341.00
2023-05-08T00:53:42.587Z,341.00
2023-05-08T00:54:42.634Z,341.00
2023-05-08T00:55:42.608Z,342.00
2023-05-08T00:56:42.618Z,342.00
2023-05-08T00:57:42.696Z,342.00
2023-05-08T00:58:42.627Z,340.00
2023-05-08T00:59:42.633Z,341.00
2023-05-08T01:00:42.645Z,339.00
2023-05-08T01:01:42.678Z,341.00
2023-05-08T01:02:42.677Z,341.00
2023-05-08T01:03:42.824Z,342.00
2023-05-08T01:04:42.658Z,342.00
2023-05-08T01:05:42.657Z,339.00
2023-05-08T01:06:42.672Z,338.00
2023-05-08T01:07:42.687Z,339.00
2023-05-08T01:08:42.674Z,340.00
2023-05-08T01:09:42.680Z,340.00
2023-05-08T01:10:42.686Z,341.00
2023-05-08T01:11:42.703Z,342.00
2023-05-08T01:12:42.749Z,342.00
2023-05-08T01:13:42.731Z,342.00
2023-05-08T01:14:42.735Z,342.00
2023-05-08T01:15:42.771Z,343.00
2023-05-08T01:16:42.740Z,342.00
2023-05-08T01:17:42.774Z,342.00
2023-05-08T01:18:42.785Z,342.00
2023-05-08T01:19:42.758Z,340.00
2023-05-08T01:20:42.764Z,340.00
2023-05-08T01:21:42.778Z,342.00
2023-05-08T01:22:42.796Z,343.00
2023-05-08T01:23:42.815Z,343.00
2023-05-08T01:24:42.822Z,342.00
2023-05-08T01:25:42.834Z,343.00
2023-05-08T01:26:42.838Z,343.00
2023-05-08T01:27:42.831Z,343.00
2023-05-08T01:28:42.871Z,340.00
2023-05-08T01:29:42.886Z,339.00
2023-05-08T01:30:42.884Z,339.00
2023-05-08T01:31:42.886Z,340.00
2023-05-08T01:32:42.975Z,342.00
2023-05-08T01:33:42.967Z,342.00
2023-05-08T01:34:42.936Z,341.00
2023-05-08T01:35:42.972Z,338.00
2023-05-08T01:36:42.952Z,339.00
2023-05-08T01:37:42.956Z,340.00
2023-05-08T01:38:42.985Z,340.00
2023-05-08T01:39:43.004Z,341.00
2023-05-08T01:40:43.016Z,341.00
2023-05-08T01:41:43.014Z,340.00
2023-05-08T01:42:43.046Z,339.00
2023-05-08T01:43:43.048Z,339.00
2023-05-08T01:44:43.070Z,338.00
2023-05-08T01:45:43.061Z,337.00
2023-05-08T01:46:43.101Z,335.00
2023-05-08T01:47:43.120Z,338.00
2023-05-08T01:48:43.081Z,340.00
2023-05-08T01:49:43.115Z,341.00
2023-05-08T01:50:43.107Z,341.00
2023-05-08T01:51:43.126Z,339.00
2023-05-08T01:52:43.170Z,341.00
2023-05-08T01:53:43.138Z,342.00
2023-05-08T01:54:43.153Z,344.00
2023-05-08T01:55:43.185Z,345.00
2023-05-08T01:56:43.205Z,343.00
2023-05-08T01:57:43.208Z,344.00
2023-05-08T01:58:43.192Z,345.00
2023-05-08T01:59:43.210Z,345.00
2023-05-08T02:00:43.349Z,345.00
2023-05-08T02:01:43.255Z,346.00
2023-05-08T02:02:43.334Z,346.00
2023-05-08T02:03:43.302Z,344.00
2023-05-08T02:04:43.282Z,342.00
2023-05-08T02:05:43.288Z,341.00
2023-05-08T02:06:43.297Z,341.00
2023-05-08T02:07:43.307Z,342.00
2023-05-08T02:08:43.333Z,342.00
2023-05-08T02:09:43.363Z,340.00
2023-05-08T02:10:43.353Z,342.00
2023-05-08T02:11:43.366Z,341.00
2023-05-08T02:12:43.432Z,342.00
2023-05-08T02:13:43.403Z,341.00
2023-05-08T02:14:43.440Z,342.00
2023-05-08T02:15:43.443Z,343.00
2023-05-08T02:16:43.502Z,345.00
2023-05-08T02:17:43.508Z,347.00
2023-05-08T02:18:43.511Z,348.00
2023-05-08T02:19:43.489Z,349.00
2023-05-08T02:20:43.494Z,346.00
2023-05-08T02:21:43.502Z,346.00
2023-05-08T02:22:43.522Z,349.00
2023-05-08T02:23:43.542Z,349.00
2023-05-08T02:24:43.557Z,349.00
2023-05-08T02:25:43.551Z,348.00
2023-05-08T02:26:43.582Z,350.00
2023-05-08T02:27:43.576Z,352.00
2023-05-08T02:28:43.604Z,353.00
2023-05-08T02:29:43.627Z,352.00
2023-05-08T02:30:43.641Z,351.00
2023-05-08T02:31:43.682Z,349.00
2023-05-08T02:32:43.666Z,348.00
2023-05-08T02:33:43.663Z,345.00
2023-05-08T02:34:54.914Z,346.00
2023-05-08T02:35:44.692Z,345.00
2023-05-08T02:36:43.694Z,347.00
2023-05-08T02:37:43.666Z,348.00
2023-05-08T02:38:43.669Z,347.00
2023-05-08T02:39:43.669Z,350.00
2023-05-08T02:40:43.645Z,354.00
2023-05-08T02:41:43.649Z,354.00
2023-05-08T02:42:43.629Z,353.00
2023-05-08T02:43:43.625Z,354.00
2023-05-08T02:44:43.643Z,355.00
2023-05-08T02:45:43.633Z,356.00
2023-05-08T02:46:43.587Z,356.00
2023-05-08T02:47:43.656Z,356.00
2023-05-08T02:48:43.612Z,354.00
2023-05-08T02:49:43.604Z,353.00
2023-05-08T02:50:43.568Z,350.00
2023-05-08T02:51:43.569Z,347.00
2023-05-08T02:52:43.580Z,347.00
2023-05-08T02:53:43.561Z,348.00
2023-05-08T02:54:43.599Z,347.00
2023-05-08T02:55:43.529Z,348.00
2023-05-08T02:56:43.519Z,349.00
2023-05-08T02:57:43.532Z,346.00
2023-05-08T02:58:43.559Z,346.00
2023-05-08T02:59:43.573Z,344.00
2023-05-08T03:00:43.598Z,349.00
2023-05-08T03:01:43.729Z,348.00
2023-05-08T03:02:43.707Z,347.00
2023-05-08T03:03:43.843Z,349.00
2023-05-08T03:04:43.674Z,349.00
2023-05-08T03:05:43.689Z,350.00
2023-05-08T03:06:43.815Z,348.00
2023-05-08T03:07:43.724Z,348.00
2023-05-08T03:08:43.758Z,346.00
2023-05-08T03:09:43.787Z,346.00
2023-05-08T03:10:43.811Z,345.00
2023-05-08T03:11:43.850Z,346.00
2023-05-08T03:12:43.878Z,347.00
2023-05-08T03:13:43.855Z,346.00
2023-05-08T03:14:43.884Z,347.00
2023-05-08T03:15:43.940Z,346.00
2023-05-08T03:16:43.925Z,344.00
2023-05-08T03:17:44.006Z,346.00
2023-05-08T03:18:43.971Z,345.00
2023-05-08T03:19:44.024Z,346.00
2023-05-08T03:20:44.060Z,349.00
2023-05-08T03:21:44.044Z,350.00
2023-05-08T03:22:44.114Z,351.00
2023-05-08T03:23:44.111Z,351.00
2023-05-08T03:24:44.117Z,350.00
2023-05-08T03:25:44.134Z,350.00
2023-05-08T03:26:44.166Z,348.00
2023-05-08T03:27:44.199Z,346.00
2023-05-08T03:28:44.208Z,345.00
2023-05-08T03:29:44.251Z,345.00
2023-05-08T03:30:44.258Z,343.00
2023-05-08T03:31:44.336Z,344.00
2023-05-08T03:32:44.339Z,342.00
2023-05-08T03:33:44.343Z,342.00
2023-05-08T03:34:44.356Z,342.00
2023-05-08T03:35:44.388Z,341.00
2023-05-08T03:36:44.392Z,340.00
2023-05-08T03:37:44.421Z,342.00
2023-05-08T03:38:44.434Z,344.00
2023-05-08T03:39:44.462Z,345.00
2023-05-08T03:40:44.468Z,345.00
2023-05-08T03:41:44.494Z,346.00
2023-05-08T03:42:44.513Z,345.00
2023-05-08T03:43:44.535Z,344.00
2023-05-08T03:44:44.558Z,345.00
2023-05-08T03:45:44.557Z,345.00
2023-05-08T03:46:44.633Z,345.00
2023-05-08T03:47:44.657Z,345.00
2023-05-08T03:48:44.634Z,346.00
2023-05-08T03:49:44.658Z,344.00
2023-05-08T03:50:44.674Z,343.00
2023-05-08T03:51:44.702Z,340.00
2023-05-08T03:52:44.710Z,340.00
2023-05-08T03:53:44.718Z,340.00
2023-05-08T03:54:44.739Z,340.00
2023-05-08T03:55:44.781Z,339.00
2023-05-08T03:56:44.798Z,341.00
2023-05-08T03:57:44.817Z,340.00
2023-05-08T03:58:44.852Z,341.00
2023-05-08T03:59:44.866Z,343.00
2023-05-08T04:00:44.880Z,345.00
2023-05-08T04:01:44.987Z,344.00
2023-05-08T04:02:44.936Z,346.00
2023-05-08T04:03:45.033Z,346.00
2023-05-08T04:04:44.953Z,344.00
2023-05-08T04:05:44.997Z,343.00
2023-05-08T04:06:49.930Z,344.00
2023-05-08T04:07:46.001Z,343.00
2023-05-08T04:08:44.977Z,342.00
2023-05-08T04:09:44.986Z,341.00
2023-05-08T04:10:44.966Z,340.00
2023-05-08T04:11:44.979Z,342.00
2023-05-08T04:12:45.020Z,345.00
2023-05-08T04:13:44.945Z,343.00
2023-05-08T04:14:44.964Z,342.00
2023-05-08T04:15:44.946Z,338.00
2023-05-08T04:16:44.986Z,340.00
2023-05-08T04:17:44.920Z,339.00
2023-05-08T04:18:44.934Z,340.00
2023-05-08T04:19:44.898Z,338.00
2023-05-08T04:20:46.242Z,340.00
2023-05-08T04:21:44.911Z,341.00
2023-05-08T04:22:44.906Z,340.00
2023-05-08T04:23:44.874Z,343.00
2023-05-08T04:24:44.879Z,342.00
2023-05-08T04:25:44.868Z,343.00
2023-05-08T04:26:44.922Z,345.00
2023-05-08T04:27:44.869Z,345.00
2023-05-08T04:28:44.841Z,347.00
2023-05-08T04:29:44.861Z,347.00
2023-05-08T04:30:44.894Z,344.00
2023-05-08T04:31:45.006Z,341.00
2023-05-08T04:32:46.357Z,343.00
2023-05-08T04:33:44.969Z,345.00
2023-05-08T04:34:44.965Z,348.00
2023-05-08T04:35:44.982Z,347.00
2023-05-08T04:36:45.025Z,346.00
2023-05-08T04:37:45.058Z,346.00
2023-05-08T04:38:45.071Z,347.00
2023-05-08T04:39:45.082Z,347.00
2023-05-08T04:40:45.099Z,346.00
2023-05-08T04:41:45.211Z,347.00
2023-05-08T04:42:45.220Z,348.00
2023-05-08T04:43:45.170Z,347.00
2023-05-08T04:44:45.194Z,348.00
2023-05-08T04:45:45.275Z,348.00
2023-05-08T04:46:45.262Z,349.00
2023-05-08T04:47:45.388Z,350.00
2023-05-08T04:48:45.318Z,351.00
2023-05-08T04:49:45.358Z,351.00
2023-05-08T04:50:45.358Z,351.00
2023-05-08T04:51:45.392Z,347.00
2023-05-08T04:52:45.416Z,349.00
2023-05-08T04:53:45.422Z,348.00
2023-05-08T04:54:45.467Z,348.00
2023-05-08T04:55:45.477Z,351.00
2023-05-08T04:56:45.502Z,350.00
2023-05-08T04:57:45.542Z,347.00
2023-05-08T04:58:45.550Z,346.00
2023-05-08T04:59:45.602Z,347.00
2023-05-08T05:00:45.642Z,345.00
2023-05-08T05:01:45.668Z,343.00
2023-05-08T05:02:45.724Z,343.00
2023-05-08T05:03:45.794Z,343.00
2023-05-08T05:04:45.722Z,343.00
2023-05-08T05:05:45.757Z,340.00
2023-05-08T05:06:45.770Z,339.00
2023-05-08T05:07:45.793Z,338.00
2023-05-08T05:08:45.830Z,342.00
2023-05-08T05:09:45.865Z,342.00
2023-05-08T05:10:45.872Z,342.00
2023-05-08T05:11:45.914Z,342.00
2023-05-08T05:12:46.016Z,342.00
2023-05-08T05:13:45.976Z,343.00
2023-05-08T05:14:45.996Z,341.00
2023-05-08T05:15:46.015Z,340.00
2023-05-08T05:16:46.085Z,341.00
2023-05-08T05:17:46.087Z,340.00
2023-05-08T05:18:46.091Z,341.00
2023-05-08T05:19:46.140Z,342.00
2023-05-08T05:20:46.144Z,343.00
2023-05-08T05:21:46.174Z,341.00
2023-05-08T05:22:46.194Z,340.00
2023-05-08T05:23:46.235Z,341.00
2023-05-08T05:24:46.267Z,343.00
2023-05-08T05:25:46.317Z,342.00
2023-05-08T05:26:46.319Z,344.00
2023-05-08T05:27:46.356Z,355.00
2023-05-08T05:28:46.375Z,358.00
2023-05-08T05:29:46.407Z,364.00
2023-05-08T05:30:46.474Z,371.00
2023-05-08T05:31:46.533Z,438.00
2023-05-08T05:32:46.547Z,440.00
2023-05-08T05:33:46.566Z,443.00
2023-05-08T05:34:46.594Z,442.00
2023-05-08T05:35:46.655Z,452.00
2023-05-08T05:36:46.714Z,460.00
2023-05-08T05:37:46.737Z,466.00
2023-05-08T05:38:46.781Z,471.00
2023-05-08T05:39:46.830Z,470.00
2023-05-08T05:40:46.884Z,469.00
2023-05-08T05:41:46.913Z,473.00
2023-05-08T05:42:46.982Z,468.00
2023-05-08T05:43:47.050Z,470.00
2023-05-08T05:44:47.045Z,463.00
2023-05-08T05:45:47.072Z,444.00
2023-05-08T05:46:47.278Z,451.00
2023-05-08T05:47:47.179Z,457.00
2023-05-08T05:48:47.178Z,454.00
2023-05-08T05:49:47.196Z,538.00
2023-05-08T05:50:47.216Z,534.00
2023-05-08T05:51:47.247Z,520.00
2023-05-08T05:52:47.308Z,494.00
2023-05-08T05:53:47.313Z,504.00
2023-05-08T05:54:47.344Z,515.00
2023-05-08T05:55:47.355Z,507.00
2023-05-08T05:56:47.378Z,502.00
2023-05-08T05:57:47.401Z,491.00
2023-05-08T05:58:47.423Z,484.00
2023-05-08T05:59:47.499Z,469.00
2023-05-08T06:00:47.482Z,459.00
2023-05-08T06:01:47.544Z,514.00
2023-05-08T06:02:47.566Z,496.00
2023-05-08T06:03:47.717Z,488.00
2023-05-08T06:04:47.632Z,497.00
2023-05-08T06:05:47.657Z,485.00
2023-05-08T06:06:47.648Z,468.00
2023-05-08T06:07:47.683Z,478.00
2023-05-08T06:08:47.750Z,472.00
2023-05-08T06:09:47.771Z,471.00
2023-05-08T06:10:47.763Z,467.00
2023-05-08T06:11:47.790Z,465.00
2023-05-08T06:12:47.827Z,460.00
2023-05-08T06:13:50.404Z,453.00
2023-05-08T06:14:47.846Z,448.00
2023-05-08T06:15:47.855Z,480.00
2023-05-08T06:16:47.908Z,471.00
2023-05-08T06:17:47.861Z,472.00
2023-05-08T06:18:47.813Z,478.00
2023-05-08T06:19:47.829Z,492.00
2023-05-08T06:20:47.807Z,489.00
2023-05-08T06:21:47.781Z,491.00
2023-05-08T06:22:47.807Z,486.00
2023-05-08T06:23:47.767Z,489.00
2023-05-08T06:24:47.798Z,483.00
2023-05-08T06:25:47.783Z,475.00
2023-05-08T06:26:47.774Z,518.00
2023-05-08T06:27:47.762Z,480.00
2023-05-08T06:28:47.735Z,462.00
2023-05-08T06:29:47.980Z,526.00
2023-05-08T06:30:47.791Z,467.00
2023-05-08T06:31:47.789Z,550.00
2023-05-08T06:32:47.753Z,573.00
2023-05-08T06:33:47.700Z,610.00
2023-05-08T06:34:47.737Z,614.00
2023-05-08T06:35:47.693Z,597.00
2023-05-08T06:36:47.691Z,596.00
2023-05-08T06:37:47.699Z,599.00
2023-05-08T06:38:47.686Z,595.00
2023-05-08T06:39:50.453Z,601.00
2023-05-08T06:40:47.650Z,617.00
2023-05-08T06:41:47.670Z,650.00
2023-05-08T06:42:47.643Z,664.00
2023-05-08T06:43:47.628Z,671.00
2023-05-08T06:44:47.647Z,673.00
2023-05-08T06:45:47.620Z,670.00
2023-05-08T06:46:47.822Z,667.00
2023-05-08T06:47:47.735Z,661.00
2023-05-08T06:48:47.601Z,654.00
2023-05-08T06:49:47.638Z,647.00
2023-05-08T06:50:47.604Z,646.00
2023-05-08T06:51:47.595Z,642.00
2023-05-08T06:52:47.608Z,643.00
2023-05-08T06:53:47.589Z,644.00
2023-05-08T06:54:47.977Z,646.00
2023-05-08T06:55:47.573Z,648.00
2023-05-08T06:56:47.568Z,673.00
2023-05-08T06:57:47.565Z,677.00
2023-05-08T06:58:57.108Z,669.00
2023-05-08T06:59:49.002Z,678.00
2023-05-08T07:00:47.520Z,683.00
2023-05-08T07:01:47.592Z,678.00
2023-05-08T07:02:47.663Z,690.00
2023-05-08T07:03:47.504Z,694.00
2023-05-08T07:04:47.568Z,699.00
2023-05-08T07:05:47.493Z,694.00
2023-05-08T07:06:47.643Z,699.00
2023-05-08T07:07:47.967Z,720.00
2023-05-08T07:08:47.485Z,665.00
2023-05-08T07:09:47.500Z,650.00
2023-05-08T07:10:47.472Z,643.00
2023-05-08T07:11:47.473Z,637.00
2023-05-08T07:12:47.487Z,632.00
2023-05-08T07:13:47.474Z,622.00
2023-05-08T07:14:47.477Z,610.00
2023-05-08T07:15:47.498Z,608.00
2023-05-08T07:16:47.506Z,615.00
2023-05-08T07:17:47.535Z,621.00
2023-05-08T07:18:47.503Z,625.00
2023-05-08T07:19:47.515Z,626.00
2023-05-08T07:20:47.540Z,629.00
2023-05-08T07:21:47.568Z,628.00
2023-05-08T07:22:47.554Z,628.00
2023-05-08T07:23:47.524Z,623.00
2023-05-08T07:24:47.536Z,621.00
2023-05-08T07:25:47.540Z,609.00
2023-05-08T07:26:47.554Z,616.00
2023-05-08T07:27:47.575Z,617.00
2023-05-08T07:28:47.561Z,684.00
2023-05-08T07:29:47.565Z,671.00
2023-05-08T07:30:47.582Z,672.00
2023-05-08T07:31:47.593Z,671.00
2023-05-08T07:32:47.605Z,678.00
2023-05-08T07:33:47.594Z,700.00
2023-05-08T07:34:47.604Z,732.00
2023-05-08T07:35:47.626Z,759.00
2023-05-08T07:36:47.686Z,768.00
2023-05-08T07:37:47.706Z,771.00
2023-05-08T07:38:47.819Z,774.00
2023-05-08T07:39:47.826Z,779.00
2023-05-08T07:40:47.987Z,788.00
2023-05-08T07:41:49.719Z,786.00
2023-05-08T07:42:48.497Z,782.00
2023-05-08T07:43:48.073Z,776.00
2023-05-08T07:44:54.519Z,765.00
2023-05-08T07:45:49.103Z,761.00
2023-05-08T07:46:48.128Z,754.00
2023-05-08T07:47:48.543Z,753.00
2023-05-08T07:48:48.077Z,752.00
2023-05-08T07:49:48.100Z,749.00
2023-05-08T07:50:48.053Z,747.00
2023-05-08T07:51:48.048Z,742.00
2023-05-08T07:52:50.172Z,704.00
2023-05-08T07:53:48.119Z,723.00
2023-05-08T07:54:48.226Z,727.00
2023-05-08T07:55:48.360Z,727.00
2023-05-08T07:56:48.311Z,721.00
2023-05-08T07:57:48.378Z,720.00
2023-05-08T07:58:48.408Z,722.00
2023-05-08T07:59:48.474Z,729.00
2023-05-08T08:00:48.552Z,725.00
2023-05-08T08:01:48.629Z,692.00
2023-05-08T08:02:48.751Z,712.00
2023-05-08T08:03:48.864Z,673.00
2023-05-08T08:04:48.769Z,716.00
2023-05-08T08:05:48.986Z,726.00
2023-05-08T08:06:48.852Z,730.00
2023-05-08T08:07:48.998Z,729.00
2023-05-08T08:08:48.972Z,731.00
2023-05-08T08:09:49.020Z,731.00
2023-05-08T08:10:49.147Z,723.00
2023-05-08T08:11:49.128Z,694.00
2023-05-08T08:12:49.530Z,691.00
2023-05-08T08:13:49.245Z,701.00
2023-05-08T08:14:49.292Z,703.00
2023-05-08T08:15:49.344Z,701.00
2023-05-08T08:16:49.495Z,703.00
2023-05-08T08:17:49.573Z,706.00
2023-05-08T08:18:49.507Z,701.00
2023-05-08T08:19:49.558Z,697.00
2023-05-08T08:20:49.662Z,693.00
2023-05-08T08:21:49.690Z,694.00
2023-05-08T08:22:49.731Z,703.00
2023-05-08T08:23:49.776Z,713.00
2023-05-08T08:24:50.023Z,728.00
2023-05-08T08:25:49.994Z,683.00
2023-05-08T08:26:50.026Z,707.00
2023-05-08T08:27:49.987Z,748.00
2023-05-08T08:28:50.055Z,785.00
2023-05-08T08:29:51.198Z,836.00
2023-05-08T08:30:50.105Z,865.00
2023-05-08T08:31:50.067Z,871.00
2023-05-08T08:32:50.098Z,885.00
2023-05-08T08:33:50.064Z,887.00
2023-05-08T08:34:50.066Z,872.00
2023-05-08T08:35:50.062Z,869.00
2023-05-08T08:36:50.048Z,770.00
2023-05-08T08:37:50.507Z,814.00
2023-05-08T08:38:50.031Z,831.00
2023-05-08T08:39:50.032Z,831.00
2023-05-08T08:40:50.020Z,835.00
2023-05-08T08:41:50.007Z,846.00
2023-05-08T08:42:50.201Z,852.00
2023-05-08T08:43:50.025Z,847.00
2023-05-08T08:44:50.024Z,837.00
2023-05-08T08:45:49.996Z,827.00
2023-05-08T08:46:50.033Z,793.00
2023-05-08T08:47:49.968Z,741.00
2023-05-08T08:48:49.952Z,644.00
2023-05-08T08:49:49.955Z,607.00
2023-05-08T08:50:49.942Z,587.00
2023-05-08T08:51:49.924Z,515.00
2023-05-08T08:52:49.937Z,522.00
2023-05-08T08:53:49.907Z,537.00
2023-05-08T08:54:49.923Z,548.00
2023-05-08T08:55:49.931Z,562.00
2023-05-08T08:56:49.917Z,508.00
2023-05-08T08:57:49.899Z,496.00
2023-05-08T08:58:49.966Z,510.00
2023-05-08T08:59:49.909Z,508.00
2023-05-08T09:00:49.865Z,499.00
2023-05-08T09:01:49.891Z,491.00
2023-05-08T09:02:50.036Z,485.00
2023-05-08T09:03:50.197Z,482.00
2023-05-08T09:04:49.858Z,480.00
2023-05-08T09:05:50.034Z,479.00
2023-05-08T09:06:49.847Z,476.00
2023-05-08T09:07:50.006Z,470.00
2023-05-08T09:08:49.817Z,467.00
2023-05-08T09:09:49.823Z,468.00
2023-05-08T09:10:49.812Z,461.00
2023-05-08T09:11:49.814Z,461.00
2023-05-08T09:12:50.143Z,461.00
2023-05-08T09:13:49.952Z,458.00
2023-05-08T09:14:50.157Z,451.00
2023-05-08T09:15:50.183Z,445.00
2023-05-08T09:16:50.205Z,442.00
2023-05-08T09:17:50.297Z,442.00
2023-05-08T09:18:50.238Z,445.00
2023-05-08T09:19:50.303Z,445.00
2023-05-08T09:20:50.370Z,445.00
2023-05-08T09:21:50.456Z,448.00
2023-05-08T09:22:50.536Z,449.00
2023-05-08T09:23:50.561Z,451.00
2023-05-08T09:24:50.617Z,453.00
2023-05-08T09:25:50.691Z,454.00
2023-05-08T09:26:50.752Z,450.00
2023-05-08T09:27:51.036Z,454.00
2023-05-08T09:28:51.052Z,493.00
2023-05-08T09:29:50.896Z,589.00
2023-05-08T09:30:51.013Z,614.00
2023-05-08T09:31:51.031Z,705.00
2023-05-08T09:32:51.098Z,628.00
2023-05-08T09:33:51.551Z,644.00
2023-05-08T09:34:51.148Z,652.00
2023-05-08T09:35:51.186Z,655.00
2023-05-08T09:36:51.267Z,655.00
2023-05-08T09:37:51.309Z,655.00
2023-05-08T09:38:51.527Z,654.00
2023-05-08T09:39:51.417Z,572.00
2023-05-08T09:40:52.035Z,508.00
2023-05-08T09:41:51.492Z,506.00
2023-05-08T09:42:51.526Z,493.00
2023-05-08T09:43:51.524Z,488.00
2023-05-08T09:44:51.565Z,482.00
2023-05-08T09:45:51.578Z,481.00
2023-05-08T09:46:51.632Z,548.00
2023-05-08T09:47:51.517Z,542.00
2023-05-08T09:48:51.503Z,548.00
2023-05-08T09:49:51.506Z,558.00
2023-05-08T09:50:51.544Z,564.00
2023-05-08T09:51:51.544Z,555.00
2023-05-08T09:52:51.558Z,552.00
2023-05-08T09:53:51.557Z,560.00
2023-05-08T09:54:51.510Z,468.00
2023-05-08T09:55:51.560Z,467.00
2023-05-08T09:56:51.523Z,460.00
2023-05-08T09:57:51.550Z,449.00
2023-05-08T09:58:51.577Z,431.00
2023-05-08T09:59:51.623Z,422.00
2023-05-08T10:00:51.714Z,416.00
2023-05-08T10:01:51.726Z,409.00
2023-05-08T10:02:51.952Z,404.00
2023-05-08T10:03:52.090Z,401.00
2023-05-08T10:04:51.930Z,401.00
2023-05-08T10:05:52.093Z,403.00
2023-05-08T10:06:52.949Z,412.00
2023-05-08T10:07:52.030Z,414.00
2023-05-08T10:08:52.061Z,426.00
2023-05-08T10:09:52.053Z,477.00
2023-05-08T10:10:52.109Z,461.00
2023-05-08T10:11:52.194Z,446.00
2023-05-08T10:12:52.198Z,439.00
2023-05-08T10:13:52.204Z,430.00
2023-05-08T10:14:52.232Z,427.00
2023-05-08T10:15:52.288Z,423.00
2023-05-08T10:16:52.373Z,423.00
2023-05-08T10:17:52.422Z,427.00
2023-05-08T10:18:52.480Z,423.00
2023-05-08T10:19:52.422Z,426.00
2023-05-08T10:20:52.479Z,426.00
2023-05-08T10:21:52.475Z,427.00
2023-05-08T10:22:52.501Z,435.00
2023-05-08T10:23:52.535Z,504.00
2023-05-08T10:24:52.520Z,581.00
2023-05-08T10:25:54.710Z,624.00
2023-05-08T10:27:05.624Z,642.00
2023-05-08T10:27:53.558Z,726.00
2023-05-08T10:28:53.051Z,740.00
2023-05-08T10:29:52.589Z,756.00
2023-05-08T10:30:52.593Z,787.00
2023-05-08T10:31:52.544Z,807.00
2023-05-08T10:32:52.573Z,828.00
2023-05-08T10:33:52.537Z,838.00
2023-05-08T10:34:52.591Z,850.00
2023-05-08T10:35:52.488Z,865.00
2023-05-08T10:36:54.040Z,882.00
2023-05-08T10:37:52.494Z,892.00
2023-05-08T10:38:52.552Z,904.00
2023-05-08T10:39:52.593Z,911.00
2023-05-08T10:40:52.642Z,923.00
2023-05-08T10:41:52.698Z,932.00
2023-05-08T10:42:52.728Z,937.00
2023-05-08T10:43:52.760Z,936.00
2023-05-08T10:44:52.790Z,931.00
2023-05-08T10:45:52.890Z,926.00
2023-05-08T10:46:52.847Z,917.00
2023-05-08T10:47:52.976Z,923.00
2023-05-08T10:48:52.904Z,921.00
2023-05-08T10:49:52.936Z,926.00
2023-05-08T10:50:52.971Z,928.00
2023-05-08T10:51:53.002Z,927.00
2023-05-08T10:52:53.050Z,927.00
2023-05-08T10:53:53.039Z,927.00
2023-05-08T10:54:53.079Z,930.00
2023-05-08T10:55:53.105Z,927.00
2023-05-08T10:56:53.110Z,930.00
2023-05-08T10:57:53.125Z,927.00
2023-05-08T10:58:53.190Z,920.00
2023-05-08T10:59:53.268Z,923.00
2023-05-08T11:00:53.196Z,923.00
2023-05-08T11:02:53.261Z,922.00
2023-05-08T11:03:53.376Z,924.00
2023-05-08T11:04:53.271Z,910.00
2023-05-08T11:05:53.318Z,912.00
2023-05-08T11:06:53.361Z,914.00
2023-05-08T11:07:53.348Z,920.00
2023-05-08T11:08:53.331Z,932.00
2023-05-08T11:09:53.398Z,925.00
2023-05-08T11:10:53.383Z,892.00
2023-05-08T11:11:53.400Z,897.00
2023-05-08T11:12:53.446Z,894.00
2023-05-08T11:13:53.424Z,885.00
2023-05-08T11:14:53.469Z,871.00
2023-05-08T11:15:53.535Z,857.00
2023-05-08T11:16:53.511Z,842.00
2023-05-08T11:17:53.550Z,630.00
2023-05-08T11:18:53.613Z,555.00
2023-05-08T11:19:53.575Z,537.00
2023-05-08T11:20:53.582Z,523.00
2023-05-08T11:21:54.059Z,489.00
2023-05-08T11:22:53.672Z,473.00
2023-05-08T11:23:53.705Z,477.00
2023-05-08T11:24:53.745Z,461.00
2023-05-08T11:25:53.836Z,459.00
2023-05-08T11:26:53.855Z,453.00
2023-05-08T11:27:53.878Z,451.00
2023-05-08T11:28:53.934Z,447.00
2023-05-08T11:29:53.976Z,439.00
2023-05-08T11:30:54.038Z,434.00
2023-05-08T11:31:54.151Z,431.00
2023-05-08T11:32:54.124Z,437.00
2023-05-08T11:33:54.210Z,487.00
2023-05-08T11:34:54.256Z,483.00
2023-05-08T11:35:54.321Z,464.00
2023-05-08T11:36:54.346Z,426.00
2023-05-08T11:37:54.384Z,428.00
2023-05-08T11:38:56.325Z,430.00
2023-05-08T11:39:54.499Z,434.00
2023-05-08T11:40:54.541Z,436.00
2023-05-08T11:41:54.594Z,438.00
2023-05-08T11:42:54.636Z,444.00
2023-05-08T11:43:54.667Z,444.00
2023-05-08T11:44:54.713Z,443.00
2023-05-08T11:45:54.780Z,444.00
2023-05-08T11:46:54.941Z,443.00
2023-05-08T11:47:55.102Z,442.00
2023-05-08T11:48:54.985Z,439.00
2023-05-08T11:49:55.012Z,436.00
2023-05-08T11:50:55.115Z,431.00
2023-05-08T11:51:55.181Z,426.00
2023-05-08T11:52:55.197Z,421.00
2023-05-08T11:53:55.251Z,416.00
2023-05-08T11:54:55.325Z,416.00
2023-05-08T11:55:55.418Z,412.00
2023-05-08T11:56:55.445Z,408.00
2023-05-08T11:57:55.513Z,403.00
2023-05-08T11:58:55.563Z,403.00
2023-05-08T11:59:55.609Z,401.00
2023-05-08T12:00:55.746Z,394.00
2023-05-08T12:02:07.614Z,392.00
2023-05-08T12:02:56.844Z,390.00
2023-05-08T12:03:55.959Z,388.00
2023-05-08T12:04:55.772Z,387.00
2023-05-08T12:05:55.722Z,388.00
2023-05-08T12:06:55.707Z,390.00
2023-05-08T12:07:55.693Z,387.00
2023-05-08T12:08:55.701Z,386.00
2023-05-08T12:09:55.675Z,383.00
2023-05-08T12:10:55.725Z,382.00
2023-05-08T12:11:55.783Z,382.00
2023-05-08T12:12:55.834Z,378.00
2023-05-08T12:13:55.913Z,376.00
2023-05-08T12:14:55.945Z,374.00
2023-05-08T12:15:56.028Z,373.00
2023-05-08T12:16:56.104Z,375.00
2023-05-08T12:17:56.150Z,374.00
2023-05-08T12:18:56.131Z,371.00
2023-05-08T12:19:56.170Z,370.00
2023-05-08T12:20:56.225Z,371.00
2023-05-08T12:21:56.254Z,373.00
2023-05-08T12:22:56.304Z,373.00
2023-05-08T12:23:56.336Z,371.00
2023-05-08T12:24:56.361Z,373.00
2023-05-08T12:25:56.427Z,373.00
2023-05-08T12:26:56.798Z,370.00
2023-05-08T12:27:56.601Z,370.00
2023-05-08T12:28:56.504Z,372.00
2023-05-08T12:29:56.548Z,372.00